Latest Coastal Weather Observations for Geelong Racecourse

IDV60701

Issued at 11:32 pm EST Saturday 25 June 2022 (issued every 10 minutes, with the page automatically refreshed every 10 minutes)

About coastal observations | Map of coastal stations | Coastal observations for VIC | Marine services | Other Formats
Station Details ID: 087184 Name: GEELONG RACECOURSE Lat: -38.17 Lon: 144.38 Height: 12.9 m
Data from the previous 72 hours. | See also: Recent months at Geelong Racecourse
Date/Time
EST
Wind Sea
Height
m
Swell Vis
km
Cloud Weather Temp
°C
Press
MSL
hPa
Rain since
9am
mm
Dir  Spd
kts
Gust
kts
Height
m
Period
s
Dir
25/11:30pm NNW 8 12 - - - - - - - 12.0 1019.7 0.0
25/11:00pm NNW 9 13 - - - - - - - 12.6 1019.7 0.0
25/10:30pm NNW 9 15 - - - - - - - 13.0 1019.5 0.0
25/10:00pm NNW 7 10 - - - - - - - 12.9 1019.4 0.0
25/09:30pm NNW 6 11 - - - - - - - 13.0 1019.4 0.0
25/09:00pm NNW 5 10 - - - - - - - 12.8 1019.3 0.0
25/08:30pm N 5 6 - - - - - - - 12.7 1019.2 0.0
25/08:00pm N 5 6 - - - - - - - 12.6 1019.1 0.0
25/07:30pm N 5 7 - - - - - - - 12.9 1018.9 0.0
25/07:00pm N 5 8 - - - - - - - 13.1 1018.8 0.0
25/06:30pm N 5 7 - - - - - - - 13.4 1018.6 0.0
25/06:00pm N 5 9 - - - - - - - 13.9 1018.3 0.0
25/05:30pm N 7 11 - - - - - - - 14.1 1017.9 0.0
25/05:00pm NNW 8 13 - - - - - - - 14.4 1017.9 0.0
25/04:30pm NW 7 11 - - - - - - - 14.4 1017.9 0.0
25/04:00pm NW 10 15 - - - - - - - 14.3 1017.9 0.0
25/03:30pm NW 12 21 - - - - - - - 15.2 1017.9 0.0
25/03:00pm NW 14 21 - - - - - - - 14.9 1017.5 0.0
25/02:30pm NW 12 19 - - - - - - - 14.9 1017.5 0.0
25/02:00pm NW 15 22 - - - - - - - 15.1 1017.4 0.0
25/01:43pm NW 15 26 - - - - - - - 15.8 1017.5 0.0
25/01:30pm NW 18 27 - - - - - - - 15.5 1017.4 0.0
25/01:14pm NW 15 27 - - - - - - - 15.8 1017.5 0.0
25/01:00pm NW 17 25 - - - - - - - 15.5 1017.6 0.0
25/12:41pm NW 15 25 - - - - - - - 15.5 1017.7 0.0
25/12:30pm WNW 12 19 - - - - - - - 15.6 1018.0 0.0
25/12:00pm NW 10 17 - - - - - - - 15.3 1018.2 0.0
25/11:30am NNW 13 19 - - - - - - - 14.5 1018.4 0.0
25/11:00am NW 13 19 - - - - - - - 14.2 1018.7 0.0
25/10:30am NNW 10 14 - - - - - - - 14.0 1018.8 0.0
25/10:00am NNW 10 17 - - - - - - - 13.3 1018.8 0.0
25/09:30am NNW 11 17 - - - - - - - 12.3 1018.5 0.0
25/09:00am NNW 9 18 - - - - - - - 11.7 1018.1 0.0
25/08:30am N 9 13 - - - - - - - 10.8 1017.9 0.0
25/08:00am NNW 8 12 - - - - - - - 10.1 1017.6 0.0
25/07:30am N 8 10 - - - - - - - 9.9 1017.7 0.0
25/07:00am NNW 8 12 - - - - - - - 9.9 1017.6 0.0
25/06:30am NNW 7 11 - - - - - - - 9.7 1017.4 0.0
25/06:00am NW 6 9 - - - - - - - 9.0 1017.3 0.0
25/05:30am NNW 6 9 - - - - - - - 9.8 1017.0 0.0
25/05:00am NNW 6 9 - - - - - - - 9.3 1016.7 0.0
25/04:30am NNW 7 11 - - - - - - - 9.9 1016.4 0.0
25/04:00am NNW 7 10 - - - - - - - 9.8 1016.5 0.0
25/03:30am NW 6 9 - - - - - - - 9.8 1016.6 0.0
25/03:00am NW 5 6 - - - - - - - 8.8 1016.5 0.0
25/02:30am NW 6 9 - - - - - - - 9.1 1016.4 0.0
25/02:00am NW 5 9 - - - - - - - 9.4 1016.3 0.0
25/01:30am NNW 2 4 - - - - - - - 9.3 1016.2 0.0
25/01:00am N 4 5 - - - - - - - 9.8 1016.4 0.0
25/12:30am N 5 6 - - - - - - - 9.9 1016.7 0.0
25/12:00am N 4 6 - - - - - - - 9.9 1017.0 0.0
 
Date/Time
EST
Wind Sea
Height
m
Swell Vis
km
Cloud Weather Temp
°C
Press
MSL
hPa
Rain since
9am
mm
Dir  Spd
kts
Gust
kts
Height
m
Period
s
Dir
24/11:30pm N 5 7 - - - - - - - 10.5 1017.0 0.0
24/11:00pm N 4 5 - - - - - - - 10.6 1017.0 0.0
24/10:30pm NNW 5 6 - - - - - - - 10.7 1017.0 0.0
24/10:00pm NW 5 9 - - - - - - - 10.5 1017.1 0.0
24/09:30pm NW 6 10 - - - - - - - 10.8 1017.1 0.0
24/09:00pm NW 5 6 - - - - - - - 9.9 1017.1 0.0
24/08:30pm NW 4 5 - - - - - - - 10.4 1017.0 0.0
24/08:00pm NNW 4 6 - - - - - - - 10.9 1017.1 0.0
24/07:30pm NNW 4 6 - - - - - - - 10.7 1016.8 0.0
24/07:00pm NW 4 5 - - - - - - - 11.1 1016.6 0.0
24/06:30pm NW 5 9 - - - - - - - 11.4 1016.4 0.0
24/06:00pm NW 7 11 - - - - - - - 12.1 1016.1 0.0
24/05:30pm WNW 5 6 - - - - - - - 12.0 1015.7 0.0
24/05:00pm WNW 5 8 - - - - - - - 12.3 1015.3 0.0
24/04:30pm W 9 15 - - - - - - - 13.1 1015.2 0.0
24/04:00pm WNW 10 18 - - - - - - - 14.2 1015.1 0.0
24/03:30pm WNW 11 17 - - - - - - - 14.4 1014.8 0.0
24/03:00pm WNW 10 15 - - - - - - - 14.6 1014.6 0.0
24/02:30pm WNW 9 15 - - - - - - - 15.0 1014.4 0.0
24/02:00pm WNW 8 12 - - - - - - - 14.4 1014.6 0.0
24/01:30pm NW 10 17 - - - - - - - 13.6 1014.8 0.0
24/01:00pm W 10 15 - - - - - - - 14.4 1014.7 0.0
24/12:30pm WNW 11 17 - - - - - - - 15.1 1014.7 0.0
24/12:00pm W 10 15 - - - - - - - 13.6 1014.9 0.0
24/11:30am WNW 10 18 - - - - - - - 12.4 1015.1 0.0
24/11:00am WNW 9 13 - - - - - - - 13.9 1015.0 0.0
24/10:30am WNW 8 13 - - - - - - - 13.9 1015.0 0.0
24/10:00am WNW 7 12 - - - - - - - 13.1 1014.8 0.0
24/09:30am WNW 7 13 - - - - - - - 12.7 1014.4 0.0
24/09:00am WNW 8 13 - - - - - - - 12.5 1014.1 512.0
24/08:30am WNW 9 15 - - - - - - - 12.1 1013.8 -
24/08:00am NW 9 15 - - - - - - - 12.4 1013.4 -
24/07:30am WNW 9 12 - - - - - - - 12.4 1013.0 -
24/07:00am NW 7 12 - - - - - - - 12.2 1012.7 -
24/06:30am NW 5 9 - - - - - - - 11.8 1012.3 -
24/06:00am NW 6 11 - - - - - - - 11.9 1011.9 -
24/05:30am WNW 5 9 - - - - - - - 11.7 1011.5 -
24/05:00am NW 6 10 - - - - - - - 11.8 1011.2 -
24/04:30am NW 6 10 - - - - - - - 12.0 1010.8 -
24/04:00am NW 8 12 - - - - - - - 12.5 1011.1 -
24/03:30am NW 10 14 - - - - - - - 13.5 1010.8 -
24/03:00am NW 10 15 - - - - - - - 14.2 1011.0 0.0
24/02:30am NW 10 15 - - - - - - - 14.6 1010.9 -
24/02:00am NW 9 15 - - - - - - - 15.2 1011.2 -
24/01:30am NW 9 17 - - - - - - - 15.6 1011.4 -
24/01:00am NNW 8 12 - - - - - - - 15.8 1011.5 -
24/12:30am N 11 17 - - - - - - - 15.8 1011.2 -
24/12:00am N 10 18 - - - - - - - 15.5 1011.5 -
 
Date/Time
EST
Wind Sea
Height
m
Swell Vis
km
Cloud Weather Temp
°C
Press
MSL
hPa
Rain since
9am
mm
Dir  Spd
kts
Gust
kts
Height
m
Period
s
Dir
23/11:30pm N 10 15 - - - - - - - 15.3 1011.8 -
23/11:00pm N 10 16 - - - - - - - 15.3 1012.1 -
23/10:30pm N 8 12 - - - - - - - 15.1 1012.6 -
23/10:00pm N 8 13 - - - - - - - 14.5 1012.6 -
23/09:30pm N 9 14 - - - - - - - 14.7 1012.9 -
23/09:00pm N 12 18 - - - - - - - 14.7 1013.2 0.0
23/08:30pm N 7 11 - - - - - - - 14.1 1014.1 -
23/08:00pm N 10 15 - - - - - - - 14.3 1014.2 -
23/07:30pm N 10 15 - - - - - - - 14.3 1014.3 -
23/07:00pm N 9 13 - - - - - - - 14.5 1014.5 -
23/06:30pm N 8 11 - - - - - - - 14.5 1014.9 -
23/06:00pm N 7 11 - - - - - - - 14.9 1015.0 -
23/05:30pm N 9 15 - - - - - - - 15.4 1015.2 -
23/05:00pm NNW 8 12 - - - - - - - 15.5 1015.3 -
23/04:30pm N 8 11 - - - - - - - 15.5 1015.5 -
23/04:00pm NNW 10 16 - - - - - - - 15.8 1015.2 -
23/03:30pm NNW 12 19 - - - - - - - 16.3 1015.5 -
23/03:00pm NNW 13 20 - - - - - - - 16.5 1015.4 -
23/02:30pm NNW 13 21 - - - - - - - 15.9 1015.3 -
23/02:00pm NNW 13 20 - - - - - - - 15.9 1015.7 -
23/01:34pm NNW 15 27 - - - - - - - 15.8 1016.0 -
23/01:30pm NNW 15 23 - - - - - - - 15.9 1016.1 -
23/01:00pm NNW 14 22 - - - - - - - 15.9 1016.7 -
23/12:30pm NNW 12 19 - - - - - - - 15.7 1017.7 -
23/12:00pm NNW 10 16 - - - - - - Recent precip. 15.6 1018.7 -
23/11:30am NNW 5 9 - - - - - - - 15.5 1019.4 -
23/11:00am N 5 8 - - - - - - - 14.9 1020.1 -
23/10:30am N 6 9 - - - - - - - 14.2 1020.4 -
23/10:00am NNW 6 9 - - - - - - - 13.7 1020.9 0.0
23/09:30am NNW 6 9 - - - - - - - 13.2 1020.8 0.0
23/09:00am NNW 7 11 - - - - - - - 12.9 1020.5 0.0
23/08:30am NNW 5 9 - - - - - - - 12.7 1020.5 0.0
23/08:00am NNE 2 3 - - - - - - - 11.4 1020.7 0.0
23/07:30am NNE 2 5 - - - - - - - 11.8 1020.8 0.0
23/07:00am N 3 5 - - - - - - - 12.0 1020.9 0.0
23/06:30am NNW 5 7 - - - - - - - 12.1 1020.7 0.0
23/06:00am N 4 6 - - - - - - - 11.7 1020.3 0.0
23/05:30am N 4 7 - - - - - - - 11.9 1020.3 0.0
23/05:00am N 5 7 - - - - - - - 12.2 1020.4 0.0
23/04:30am N 6 8 - - - - - - - 12.4 1020.3 0.0
23/04:00am N 7 11 - - - - - - - 12.6 1020.5 0.0
23/03:30am N 7 10 - - - - - - - 12.6 1021.2 0.0
23/03:00am NNW 5 7 - - - - - - - 12.2 1021.5 0.0
23/02:30am NW 6 9 - - - - - - - 12.1 1021.8 0.0
23/02:00am NNW 7 9 - - - - - - - 12.1 1021.9 0.0
23/01:30am NW 6 8 - - - - - - - 11.9 1021.9 0.0
23/01:00am NNW 5 6 - - - - - - - 11.3 1022.1 0.0
23/12:30am N 3 3 - - - - - - - 10.6 1022.4 0.0
23/12:00am CALM 0 3 - - - - - - - 11.2 1022.5 0.0

Other formats

Comma delimited format used in spreadsheet applications
http://www.bom.gov.au/fwo/IDV60701/IDV60701.94857.axf

JavaScript Object Notation format (JSON) in row-major order
http://www.bom.gov.au/fwo/IDV60701/IDV60701.94857.json

Data quality

Most of these data are generated automatically and are frequently updated. Quality checks on data are not normally performed. It is possible for incorrect values to appear. Refer to information at About Latest Weather Observations and please check the disclaimer before using these data.